PWSweather.com
Personal Weather Stations
Station Observations
TARRYHILL
Tarrytown, NY 10591

Tarrytown, NY 10591

Lat: 41.05185, Lon: -73.85296

Elevation: 341

Station Type: Davis Vantage Vue

Latest ConditionsUpdated 9:50:17 PM EDT Friday, May 27, 2016
Currently Today's Max Today's Min Today's Average
Temperature 71.4°F21.9°C 88.1°F31.2°C 66.1°F18.9°C 75.9°F24.4°C
Dew Point 64.2°F17.9°C 69.6°F20.9°C 56.1°F13.4°C 63.5°F17.5°C
Winds Calm Calm 6.7 mph S10.8 kmh S - 1.4 mph 2.3 kmh
Wind Gusts -- 12.0 mph19.3 kmh - -
Humidity 78% 82% 52% 66%
Pressure 30.05 in1017.6 mb 30.08 in1018.6 mb 30.01 in1016.3 mb -
Hour Temp Dew Point Humidity Winds Wind Gusts Pressure Precip Precip Rate Daily Precip Total
09:50 PM 71.4°F21.9°C 64.2°F17.9°C 78% Calm Calm -- 30.05 in1017.6 mb - 0.00 in0.0 mm 0.00 in0.0 mm
09:40 PM 71.7°F22.1°C 64.5°F18.1°C 78% Calm Calm -- 30.05 in1017.6 mb - 0.00 in0.0 mm 0.00 in0.0 mm
09:30 PM 71.9°F22.2°C 64.7°F18.2°C 78% Calm Calm -- 30.05 in1017.6 mb - 0.00 in0.0 mm 0.00 in0.0 mm
09:20 PM 72.3°F22.4°C 64.7°F18.2°C 77% Calm Calm -- 30.05 in1017.6 mb - 0.00 in0.0 mm 0.00 in0.0 mm
09:10 PM 72.4°F22.4°C 64.8°F18.2°C 77% 0.1 mph ESE0.2 kmh ESE 1.0 mph1.6 kmh 30.04 in1017.3 mb - 0.00 in0.0 mm 0.00 in0.0 mm
09:00 PM 72.9°F22.7°C 64.9°F18.3°C 76% Calm Calm -- 30.04 in1017.3 mb - 0.00 in0.0 mm 0.00 in0.0 mm
08:50 PM 73.2°F22.9°C 64.8°F18.2°C 75% Calm Calm 1.0 mph1.6 kmh 30.03 in1016.9 mb - 0.00 in0.0 mm 0.00 in0.0 mm
08:40 PM 73.5°F23.1°C 65.1°F18.4°C 75% 0.3 mph ENE0.5 kmh ENE -- 30.02 in1016.6 mb - 0.00 in0.0 mm 0.00 in0.0 mm
08:30 PM 73.7°F23.2°C 64.9°F18.3°C 74% 0.5 mph WNW0.8 kmh WNW 2.0 mph3.2 kmh 30.02 in1016.6 mb - 0.00 in0.0 mm 0.00 in0.0 mm
08:20 PM 74.1°F23.4°C 64.9°F18.3°C 73% 0.4 mph W0.6 kmh W 1.0 mph1.6 kmh 30.01 in1016.3 mb - 0.00 in0.0 mm 0.00 in0.0 mm
08:10 PM 74.4°F23.6°C 65.2°F18.4°C 73% 0.1 mph SE0.2 kmh SE -- 30.02 in1016.6 mb - 0.00 in0.0 mm 0.00 in0.0 mm
08:00 PM 74.7°F23.7°C 65.1°F18.4°C 72% 0.5 mph SE0.8 kmh SE 1.0 mph1.6 kmh 30.02 in1016.6 mb - 0.00 in0.0 mm 0.00 in0.0 mm
07:50 PM 75.2°F24.0°C 65.1°F18.4°C 71% 0.3 mph NW0.5 kmh NW 2.0 mph3.2 kmh 30.02 in1016.6 mb - 0.00 in0.0 mm 0.00 in0.0 mm
07:40 PM 75.8°F24.3°C 65.3°F18.5°C 70% 0.5 mph SSE0.8 kmh SSE 2.0 mph3.2 kmh 30.02 in1016.6 mb - 0.00 in0.0 mm 0.00 in0.0 mm
07:30 PM 76.1°F24.5°C 65.6°F18.7°C 70% 1.5 mph WSW2.4 kmh WSW 4.0 mph6.4 kmh 30.02 in1016.6 mb - 0.00 in0.0 mm 0.00 in0.0 mm
07:20 PM 76.9°F24.9°C 65.5°F18.6°C 68% 0.4 mph SSE0.6 kmh SSE 1.0 mph1.6 kmh 30.02 in1016.6 mb - 0.00 in0.0 mm 0.00 in0.0 mm
07:10 PM 77.7°F25.4°C 65.9°F18.8°C 67% 2.7 mph ENE4.3 kmh ENE 3.0 mph4.8 kmh 30.02 in1016.6 mb - 0.00 in0.0 mm 0.00 in0.0 mm
07:00 PM 77.9°F25.5°C 65.6°F18.7°C 66% 1.8 mph NW2.9 kmh NW 3.0 mph4.8 kmh 30.02 in1016.6 mb - 0.00 in0.0 mm 0.00 in0.0 mm
06:50 PM 78.0°F25.6°C 65.8°F18.8°C 66% 1.8 mph SSE2.9 kmh SSE 4.0 mph6.4 kmh 30.02 in1016.6 mb - 0.00 in0.0 mm 0.00 in0.0 mm
06:40 PM 78.7°F25.9°C 65.9°F18.8°C 65% 1.1 mph W1.8 kmh W 3.0 mph4.8 kmh 30.02 in1016.6 mb - 0.00 in0.0 mm 0.00 in0.0 mm
06:30 PM 78.6°F25.9°C 65.8°F18.8°C 65% 1.6 mph SSW2.6 kmh SSW 5.0 mph8.0 kmh 30.02 in1016.6 mb - 0.00 in0.0 mm 0.00 in0.0 mm
06:20 PM 79.1°F26.2°C 66.3°F19.1°C 65% 2.0 mph SW3.2 kmh SW 3.0 mph4.8 kmh 30.02 in1016.6 mb - 0.00 in0.0 mm 0.00 in0.0 mm
06:10 PM 79.0°F26.1°C 65.8°F18.8°C 64% 3.4 mph SW5.5 kmh SW 6.0 mph9.7 kmh 30.02 in1016.6 mb - 0.00 in0.0 mm 0.00 in0.0 mm
06:00 PM 79.7°F26.5°C 66.0°F18.9°C 63% 2.3 mph E3.7 kmh E 5.0 mph8.0 kmh 30.02 in1016.6 mb - 0.00 in0.0 mm 0.00 in0.0 mm
05:50 PM 80.5°F26.9°C 66.3°F19.1°C 62% 0.7 mph SE1.1 kmh SE 1.0 mph1.6 kmh 30.02 in1016.6 mb - 0.00 in0.0 mm 0.00 in0.0 mm
05:40 PM 81.8°F27.7°C 66.5°F19.2°C 60% 2.4 mph SW3.9 kmh SW 4.0 mph6.4 kmh 30.02 in1016.6 mb - 0.00 in0.0 mm 0.00 in0.0 mm
05:30 PM 82.0°F27.8°C 66.7°F19.3°C 60% 2.6 mph N4.2 kmh N 7.0 mph11.3 kmh 30.02 in1016.6 mb - 0.00 in0.0 mm 0.00 in0.0 mm
05:20 PM 82.6°F28.1°C 66.8°F19.3°C 59% 3.8 mph WSW6.1 kmh WSW 6.0 mph9.7 kmh 30.02 in1016.6 mb - 0.00 in0.0 mm 0.00 in0.0 mm
05:10 PM 82.1°F27.8°C 66.8°F19.3°C 60% 4.0 mph SSW6.4 kmh SSW 10.0 mph16.1 kmh 30.02 in1016.6 mb - 0.00 in0.0 mm 0.00 in0.0 mm
05:00 PM 82.8°F28.2°C 66.6°F19.2°C 58% 4.9 mph S7.9 kmh S 9.0 mph14.5 kmh 30.02 in1016.6 mb - 0.00 in0.0 mm 0.00 in0.0 mm
04:50 PM 84.2°F29.0°C 66.8°F19.3°C 56% 6.7 mph S10.8 kmh S 11.0 mph17.7 kmh 30.02 in1016.6 mb - 0.00 in0.0 mm 0.00 in0.0 mm
04:40 PM 84.3°F29.1°C 67.9°F19.9°C 58% 2.8 mph NE4.5 kmh NE 10.0 mph16.1 kmh 30.02 in1016.6 mb - 0.00 in0.0 mm 0.00 in0.0 mm
04:30 PM 84.5°F29.2°C 67.6°F19.8°C 57% 3.2 mph WSW5.1 kmh WSW 8.0 mph12.9 kmh 30.02 in1016.6 mb - 0.00 in0.0 mm 0.00 in0.0 mm
04:20 PM 84.4°F29.1°C 68.0°F20.0°C 58% 2.9 mph SW4.7 kmh SW 6.0 mph9.7 kmh 30.02 in1016.6 mb - 0.00 in0.0 mm 0.00 in0.0 mm
04:10 PM 84.7°F29.3°C 68.8°F20.4°C 59% 3.6 mph SE5.8 kmh SE 7.0 mph11.3 kmh 30.03 in1016.9 mb - 0.00 in0.0 mm 0.00 in0.0 mm
04:00 PM 84.6°F29.2°C 68.2°F20.1°C 58% 4.6 mph W7.4 kmh W 8.0 mph12.9 kmh 30.03 in1016.9 mb - 0.00 in0.0 mm 0.00 in0.0 mm
03:50 PM 84.8°F29.3°C 68.3°F20.2°C 58% 3.1 mph NW5.0 kmh NW 9.0 mph14.5 kmh 30.03 in1016.9 mb - 0.00 in0.0 mm 0.00 in0.0 mm
03:40 PM 85.0°F29.4°C 68.6°F20.3°C 58% 4.0 mph WSW6.4 kmh WSW 10.0 mph16.1 kmh 30.03 in1016.9 mb - 0.00 in0.0 mm 0.00 in0.0 mm
03:30 PM 85.5°F29.7°C 68.5°F20.3°C 57% 5.5 mph SE8.9 kmh SE 10.0 mph16.1 kmh 30.03 in1016.9 mb - 0.00 in0.0 mm 0.00 in0.0 mm
03:20 PM 86.2°F30.1°C 69.6°F20.9°C 58% 2.5 mph S4.0 kmh S 5.0 mph8.0 kmh 30.03 in1016.9 mb - 0.00 in0.0 mm 0.00 in0.0 mm
03:10 PM 86.3°F30.2°C 68.8°F20.4°C 56% 6.0 mph SSW9.7 kmh SSW 9.0 mph14.5 kmh 30.03 in1016.9 mb - 0.00 in0.0 mm 0.00 in0.0 mm
03:00 PM 87.0°F30.6°C 68.9°F20.5°C 55% 5.5 mph SSW8.9 kmh SSW 8.0 mph12.9 kmh 30.02 in1016.6 mb - 0.00 in0.0 mm 0.00 in0.0 mm
02:50 PM 87.0°F30.6°C 69.4°F20.8°C 56% 5.4 mph SW8.7 kmh SW 12.0 mph19.3 kmh 30.03 in1016.9 mb - 0.00 in0.0 mm 0.00 in0.0 mm
02:40 PM 87.3°F30.7°C 69.2°F20.7°C 55% 2.3 mph SSE3.7 kmh SSE 5.0 mph8.0 kmh 30.03 in1016.9 mb - 0.00 in0.0 mm 0.00 in0.0 mm
02:30 PM 88.1°F31.2°C 69.3°F20.7°C 54% 2.3 mph S3.7 kmh S 7.0 mph11.3 kmh 30.03 in1016.9 mb - 0.00 in0.0 mm 0.00 in0.0 mm
02:20 PM 87.6°F30.9°C 68.9°F20.5°C 54% 3.8 mph SW6.1 kmh SW 7.0 mph11.3 kmh 30.03 in1016.9 mb - 0.00 in0.0 mm 0.00 in0.0 mm
02:10 PM 87.5°F30.8°C 68.3°F20.2°C 53% 4.1 mph WNW6.6 kmh WNW 7.0 mph11.3 kmh 30.04 in1017.3 mb - 0.00 in0.0 mm 0.00 in0.0 mm
02:00 PM 86.9°F30.5°C 68.3°F20.2°C 54% 0.9 mph WSW1.4 kmh WSW 1.0 mph1.6 kmh 30.04 in1017.3 mb - 0.00 in0.0 mm 0.00 in0.0 mm
01:50 PM 86.8°F30.4°C 68.1°F20.1°C 54% 2.4 mph NE3.9 kmh NE 6.0 mph9.7 kmh 30.04 in1017.3 mb - 0.00 in0.0 mm 0.00 in0.0 mm
01:40 PM 86.7°F30.4°C 67.5°F19.7°C 53% 3.5 mph WSW5.6 kmh WSW 9.0 mph14.5 kmh 30.05 in1017.6 mb - 0.00 in0.0 mm 0.00 in0.0 mm
01:30 PM 87.0°F30.6°C 67.8°F19.9°C 53% 5.1 mph SW8.2 kmh SW 6.0 mph9.7 kmh 30.05 in1017.6 mb - 0.00 in0.0 mm 0.00 in0.0 mm
01:20 PM 86.8°F30.4°C 67.0°F19.4°C 52% 2.2 mph WSW3.5 kmh WSW 3.0 mph4.8 kmh 30.05 in1017.6 mb - 0.00 in0.0 mm 0.00 in0.0 mm
01:10 PM 87.1°F30.6°C 67.9°F19.9°C 53% 1.3 mph ESE2.1 kmh ESE 5.0 mph8.0 kmh 30.05 in1017.6 mb - 0.00 in0.0 mm 0.00 in0.0 mm
01:00 PM 86.6°F30.3°C 68.0°F20.0°C 54% 5.4 mph SW8.7 kmh SW 9.0 mph14.5 kmh 30.06 in1017.9 mb - 0.00 in0.0 mm 0.00 in0.0 mm
12:50 PM 86.2°F30.1°C 67.0°F19.4°C 53% 2.4 mph E3.9 kmh E 3.0 mph4.8 kmh 30.06 in1017.9 mb - 0.00 in0.0 mm 0.00 in0.0 mm
12:40 PM 85.8°F29.9°C 67.2°F19.6°C 54% 3.9 mph SW6.3 kmh SW 7.0 mph11.3 kmh 30.05 in1017.6 mb - 0.00 in0.0 mm 0.00 in0.0 mm
12:30 PM 84.7°F29.3°C 67.8°F19.9°C 57% 3.3 mph SW5.3 kmh SW 5.0 mph8.0 kmh 30.06 in1017.9 mb - 0.00 in0.0 mm 0.00 in0.0 mm
12:20 PM 84.5°F29.2°C 67.1°F19.5°C 56% 3.6 mph SSW5.8 kmh SSW 5.0 mph8.0 kmh 30.06 in1017.9 mb - 0.00 in0.0 mm 0.00 in0.0 mm
12:10 PM 84.2°F29.0°C 67.8°F19.9°C 58% 1.4 mph SE2.3 kmh SE 4.0 mph6.4 kmh 30.06 in1017.9 mb - 0.00 in0.0 mm 0.00 in0.0 mm
12:00 PM 83.3°F28.5°C 67.5°F19.7°C 59% 2.7 mph SW4.3 kmh SW 3.0 mph4.8 kmh 30.07 in1018.3 mb - 0.00 in0.0 mm 0.00 in0.0 mm
11:50 AM 83.4°F28.6°C 67.6°F19.8°C 59% 2.7 mph SW4.3 kmh SW 5.0 mph8.0 kmh 30.07 in1018.3 mb - 0.00 in0.0 mm 0.00 in0.0 mm
11:40 AM 82.3°F27.9°C 67.5°F19.7°C 61% 2.7 mph SSW4.3 kmh SSW 4.0 mph6.4 kmh 30.07 in1018.3 mb - 0.00 in0.0 mm 0.00 in0.0 mm
11:30 AM 82.6°F28.1°C 66.8°F19.3°C 59% 2.8 mph WSW4.5 kmh WSW 3.0 mph4.8 kmh 30.07 in1018.3 mb - 0.00 in0.0 mm 0.00 in0.0 mm
11:20 AM 81.6°F27.6°C 67.3°F19.6°C 62% 0.1 mph SW0.2 kmh SW -- 30.07 in1018.3 mb - 0.00 in0.0 mm 0.00 in0.0 mm
11:10 AM 79.8°F26.6°C 66.1°F18.9°C 63% 1.5 mph SW2.4 kmh SW 3.0 mph4.8 kmh 30.07 in1018.3 mb - 0.00 in0.0 mm 0.00 in0.0 mm
11:00 AM 79.8°F26.6°C 66.6°F19.2°C 64% 3.0 mph SW4.8 kmh SW 6.0 mph9.7 kmh 30.07 in1018.3 mb - 0.00 in0.0 mm 0.00 in0.0 mm
10:50 AM 79.4°F26.3°C 66.2°F19.0°C 64% 0.7 mph SW1.1 kmh SW 5.0 mph8.0 kmh 30.07 in1018.3 mb - 0.00 in0.0 mm 0.00 in0.0 mm
10:40 AM 79.0°F26.1°C 66.7°F19.3°C 66% 2.0 mph W3.2 kmh W 2.0 mph3.2 kmh 30.07 in1018.3 mb - 0.00 in0.0 mm 0.00 in0.0 mm
10:30 AM 77.9°F25.5°C 66.5°F19.2°C 68% 0.5 mph SE0.8 kmh SE 1.0 mph1.6 kmh 30.07 in1018.3 mb - 0.00 in0.0 mm 0.00 in0.0 mm
10:20 AM 77.7°F25.4°C 65.4°F18.6°C 66% 3.3 mph S5.3 kmh S 6.0 mph9.7 kmh 30.07 in1018.3 mb - 0.00 in0.0 mm 0.00 in0.0 mm
10:10 AM 77.3°F25.2°C 65.1°F18.4°C 66% 3.1 mph SW5.0 kmh SW 4.0 mph6.4 kmh 30.07 in1018.3 mb - 0.00 in0.0 mm 0.00 in0.0 mm
10:00 AM 76.6°F24.8°C 65.3°F18.5°C 68% 0.6 mph SW1.0 kmh SW 2.0 mph3.2 kmh 30.07 in1018.3 mb - 0.00 in0.0 mm 0.00 in0.0 mm
09:50 AM 75.9°F24.4°C 64.6°F18.1°C 68% 1.2 mph ESE1.9 kmh ESE 2.0 mph3.2 kmh 30.08 in1018.6 mb - 0.00 in0.0 mm 0.00 in0.0 mm
09:40 AM 74.9°F23.8°C 64.8°F18.2°C 71% 0.4 mph SE0.6 kmh SE 2.0 mph3.2 kmh 30.08 in1018.6 mb - 0.00 in0.0 mm 0.00 in0.0 mm
09:30 AM 74.0°F23.3°C 64.4°F18.0°C 72% 1.4 mph SE2.3 kmh SE 1.0 mph1.6 kmh 30.08 in1018.6 mb - 0.00 in0.0 mm 0.00 in0.0 mm
09:20 AM 73.7°F23.2°C 64.1°F17.8°C 72% 1.7 mph SW2.7 kmh SW 5.0 mph8.0 kmh 30.07 in1018.3 mb - 0.00 in0.0 mm 0.00 in0.0 mm
09:10 AM 72.5°F22.5°C 63.7°F17.6°C 74% 0.4 mph ESE0.6 kmh ESE 2.0 mph3.2 kmh 30.08 in1018.6 mb - 0.00 in0.0 mm 0.00 in0.0 mm
09:00 AM 71.8°F22.1°C 63.4°F17.4°C 75% 0.1 mph SW0.2 kmh SW 2.0 mph3.2 kmh 30.08 in1018.6 mb - 0.00 in0.0 mm 0.00 in0.0 mm
08:50 AM 71.2°F21.8°C 62.8°F17.1°C 75% Calm Calm -- 30.08 in1018.6 mb - 0.00 in0.0 mm 0.00 in0.0 mm
08:40 AM 70.9°F21.6°C 63.0°F17.2°C 76% Calm Calm -- 30.08 in1018.6 mb - 0.00 in0.0 mm 0.00 in0.0 mm
08:30 AM 70.3°F21.3°C 62.3°F16.8°C 76% Calm Calm -- 30.08 in1018.6 mb - 0.00 in0.0 mm 0.00 in0.0 mm
08:20 AM 69.8°F21.0°C 62.3°F16.8°C 77% Calm Calm -- 30.08 in1018.6 mb - 0.00 in0.0 mm 0.00 in0.0 mm
08:10 AM 68.7°F20.4°C 61.9°F16.6°C 79% Calm Calm 1.0 mph1.6 kmh 30.08 in1018.6 mb - 0.00 in0.0 mm 0.00 in0.0 mm
08:00 AM 67.8°F19.9°C 61.1°F16.2°C 79% Calm Calm -- 30.07 in1018.3 mb - 0.00 in0.0 mm 0.00 in0.0 mm
07:50 AM 67.1°F19.5°C 60.4°F15.8°C 79% 0.5 mph SW0.8 kmh SW 1.0 mph1.6 kmh 30.08 in1018.6 mb - 0.00 in0.0 mm 0.00 in0.0 mm
07:40 AM 66.7°F19.3°C 60.7°F15.9°C 81% 0.2 mph SW0.3 kmh SW 2.0 mph3.2 kmh 30.07 in1018.3 mb - 0.00 in0.0 mm 0.00 in0.0 mm
07:30 AM 66.5°F19.2°C 60.5°F15.8°C 81% 1.3 mph NNW2.1 kmh NNW 2.0 mph3.2 kmh 30.07 in1018.3 mb - 0.00 in0.0 mm 0.00 in0.0 mm
07:20 AM 66.2°F19.0°C 59.8°F15.4°C 80% 0.2 mph WNW0.3 kmh WNW 1.0 mph1.6 kmh 30.07 in1018.3 mb - 0.00 in0.0 mm 0.00 in0.0 mm
07:10 AM 66.1°F18.9°C 60.1°F15.6°C 81% Calm Calm -- 30.07 in1018.3 mb - 0.00 in0.0 mm 0.00 in0.0 mm
07:00 AM 66.2°F19.0°C 60.5°F15.8°C 82% 0.6 mph E1.0 kmh E 1.0 mph1.6 kmh 30.07 in1018.3 mb - 0.00 in0.0 mm 0.00 in0.0 mm
06:50 AM 66.2°F19.0°C 60.2°F15.7°C 81% 0.1 mph NE0.2 kmh NE -- 30.07 in1018.3 mb - 0.00 in0.0 mm 0.00 in0.0 mm
06:41 AM 66.6°F19.2°C 59.9°F15.5°C 79% 0.3 mph NNE0.5 kmh NNE 1.0 mph1.6 kmh 30.07 in1018.3 mb - 0.00 in0.0 mm 0.00 in0.0 mm
05:10 AM 66.7°F19.3°C 58.9°F14.9°C 76% Calm Calm -- 30.06 in1017.9 mb - 0.00 in0.0 mm 0.00 in0.0 mm
05:00 AM 66.7°F19.3°C 58.9°F14.9°C 76% Calm Calm 1.0 mph1.6 kmh 30.06 in1017.9 mb - 0.00 in0.0 mm 0.00 in0.0 mm
04:50 AM 66.8°F19.3°C 58.6°F14.8°C 75% 0.1 mph NE0.2 kmh NE 1.0 mph1.6 kmh 30.06 in1017.9 mb - 0.00 in0.0 mm 0.00 in0.0 mm
04:40 AM 66.7°F19.3°C 58.5°F14.7°C 75% 0.1 mph NE0.2 kmh NE -- 30.07 in1018.3 mb - 0.00 in0.0 mm 0.00 in0.0 mm
04:30 AM 67.2°F19.6°C 58.2°F14.6°C 73% Calm Calm 1.0 mph1.6 kmh 30.07 in1018.3 mb - 0.00 in0.0 mm 0.00 in0.0 mm
04:20 AM 67.4°F19.7°C 58.4°F14.7°C 73% Calm Calm -- 30.07 in1018.3 mb - 0.00 in0.0 mm 0.00 in0.0 mm
04:10 AM 67.6°F19.8°C 58.2°F14.6°C 72% 0.1 mph WNW0.2 kmh WNW 1.0 mph1.6 kmh 30.07 in1018.3 mb - 0.00 in0.0 mm 0.00 in0.0 mm
04:00 AM 67.7°F19.8°C 58.0°F14.4°C 71% Calm Calm -- 30.07 in1018.3 mb - 0.00 in0.0 mm 0.00 in0.0 mm
03:50 AM 67.2°F19.6°C 57.5°F14.2°C 71% Calm Calm 1.0 mph1.6 kmh 30.07 in1018.3 mb - 0.00 in0.0 mm 0.00 in0.0 mm
03:40 AM 67.5°F19.7°C 57.4°F14.1°C 70% Calm Calm -- 30.07 in1018.3 mb - 0.00 in0.0 mm 0.00 in0.0 mm
03:30 AM 68.1°F20.1°C 57.5°F14.2°C 69% Calm Calm -- 30.07 in1018.3 mb - 0.00 in0.0 mm 0.00 in0.0 mm
03:20 AM 68.3°F20.2°C 57.4°F14.1°C 68% Calm Calm -- 30.06 in1017.9 mb - 0.00 in0.0 mm 0.00 in0.0 mm
03:10 AM 68.4°F20.2°C 57.0°F13.9°C 67% Calm Calm -- 30.06 in1017.9 mb - 0.00 in0.0 mm 0.00 in0.0 mm
03:00 AM 68.2°F20.1°C 56.8°F13.8°C 67% 0.3 mph SW0.5 kmh SW -- 30.06 in1017.9 mb - 0.00 in0.0 mm 0.00 in0.0 mm
02:50 AM 68.2°F20.1°C 56.8°F13.8°C 67% Calm Calm -- 30.06 in1017.9 mb - 0.00 in0.0 mm 0.00 in0.0 mm
02:40 AM 68.3°F20.2°C 56.9°F13.8°C 67% Calm Calm -- 30.06 in1017.9 mb - 0.00 in0.0 mm 0.00 in0.0 mm
02:30 AM 68.6°F20.3°C 57.2°F14.0°C 67% Calm Calm -- 30.07 in1018.3 mb - 0.00 in0.0 mm 0.00 in0.0 mm
02:20 AM 69.3°F20.7°C 57.0°F13.9°C 65% 0.1 mph ENE0.2 kmh ENE -- 30.07 in1018.3 mb - 0.00 in0.0 mm 0.00 in0.0 mm
02:10 AM 68.6°F20.3°C 56.8°F13.8°C 66% Calm Calm -- 30.06 in1017.9 mb - 0.00 in0.0 mm 0.00 in0.0 mm
02:00 AM 68.5°F20.3°C 56.6°F13.7°C 66% Calm Calm -- 30.06 in1017.9 mb - 0.00 in0.0 mm 0.00 in0.0 mm
01:50 AM 67.9°F19.9°C 56.9°F13.8°C 68% Calm Calm -- 30.07 in1018.3 mb - 0.00 in0.0 mm 0.00 in0.0 mm
01:40 AM 68.3°F20.2°C 56.9°F13.8°C 67% Calm Calm -- 30.06 in1017.9 mb - 0.00 in0.0 mm 0.00 in0.0 mm
01:30 AM 68.6°F20.3°C 56.4°F13.6°C 65% Calm Calm -- 30.06 in1017.9 mb - 0.00 in0.0 mm 0.00 in0.0 mm
01:20 AM 68.7°F20.4°C 56.9°F13.8°C 66% 0.1 mph ESE0.2 kmh ESE 1.0 mph1.6 kmh 30.06 in1017.9 mb - 0.00 in0.0 mm 0.00 in0.0 mm
01:10 AM 68.3°F20.2°C 56.5°F13.6°C 66% Calm Calm -- 30.06 in1017.9 mb - 0.00 in0.0 mm 0.00 in0.0 mm
01:00 AM 68.5°F20.3°C 56.7°F13.7°C 66% Calm Calm -- 30.06 in1017.9 mb - 0.00 in0.0 mm 0.00 in0.0 mm
12:50 AM 68.4°F20.2°C 56.6°F13.7°C 66% Calm Calm -- 30.06 in1017.9 mb - 0.00 in0.0 mm 0.00 in0.0 mm
12:40 AM 68.8°F20.4°C 56.6°F13.7°C 65% Calm Calm -- 30.06 in1017.9 mb - 0.00 in0.0 mm 0.00 in0.0 mm
12:30 AM 69.6°F20.9°C 56.5°F13.6°C 63% Calm Calm -- 30.06 in1017.9 mb - 0.00 in0.0 mm 0.00 in0.0 mm
12:20 AM 70.4°F21.3°C 56.3°F13.5°C 61% Calm Calm -- 30.06 in1017.9 mb - 0.00 in0.0 mm 0.00 in0.0 mm
12:10 AM 70.8°F21.6°C 56.2°F13.4°C 60% Calm Calm -- 30.06 in1017.9 mb - 0.00 in0.0 mm 0.00 in0.0 mm
12:00 AM 71.2°F21.8°C 56.1°F13.4°C 59% Calm Calm -- 30.07 in1018.3 mb - 0.00 in0.0 mm 0.00 in0.0 mm